sensor_id;sensor_type;location;lat;lon;timestamp;P1;durP1;ratioP1;P2;durP2;ratioP2
12958;SDS011;6544;51.666;6.634;2023-06-14T00:00:02;8.27;;;4.60;;
12958;SDS011;6544;51.666;6.634;2023-06-14T00:02:30;9.07;;;4.80;;
12958;SDS011;6544;51.666;6.634;2023-06-14T00:04:57;8.13;;;4.53;;
12958;SDS011;6544;51.666;6.634;2023-06-14T00:07:33;7.50;;;4.43;;
12958;SDS011;6544;51.666;6.634;2023-06-14T00:10:00;5.60;;;4.25;;
12958;SDS011;6544;51.666;6.634;2023-06-14T00:12:28;7.85;;;3.90;;
12958;SDS011;6544;51.666;6.634;2023-06-14T00:14:55;5.93;;;4.25;;
12958;SDS011;6544;51.666;6.634;2023-06-14T00:17:24;5.07;;;4.18;;
12958;SDS011;6544;51.666;6.634;2023-06-14T00:19:55;5.90;;;3.90;;
12958;SDS011;6544;51.666;6.634;2023-06-14T00:22:22;4.85;;;3.97;;
12958;SDS011;6544;51.666;6.634;2023-06-14T00:24:50;6.57;;;4.05;;
12958;SDS011;6544;51.666;6.634;2023-06-14T00:27:18;9.23;;;4.40;;
12958;SDS011;6544;51.666;6.634;2023-06-14T00:29:45;6.63;;;4.10;;
12958;SDS011;6544;51.666;6.634;2023-06-14T00:32:12;6.45;;;4.28;;
12958;SDS011;6544;51.666;6.634;2023-06-14T00:34:40;6.18;;;4.07;;
12958;SDS011;6544;51.666;6.634;2023-06-14T00:37:07;7.35;;;4.20;;
12958;SDS011;6544;51.666;6.634;2023-06-14T00:39:34;9.27;;;4.05;;
12958;SDS011;6544;51.666;6.634;2023-06-14T00:42:00;6.72;;;3.85;;
12958;SDS011;6544;51.666;6.634;2023-06-14T00:44:27;6.25;;;3.88;;
12958;SDS011;6544;51.666;6.634;2023-06-14T00:46:54;6.93;;;4.07;;
12958;SDS011;6544;51.666;6.634;2023-06-14T00:49:21;7.75;;;3.65;;
12958;SDS011;6544;51.666;6.634;2023-06-14T00:51:49;8.77;;;3.70;;
12958;SDS011;6544;51.666;6.634;2023-06-14T00:54:16;8.32;;;4.10;;
12958;SDS011;6544;51.666;6.634;2023-06-14T00:56:43;6.68;;;3.55;;
12958;SDS011;6544;51.666;6.634;2023-06-14T00:59:11;5.20;;;4.00;;
12958;SDS011;6544;51.666;6.634;2023-06-14T01:01:37;5.97;;;3.75;;
12958;SDS011;6544;51.666;6.634;2023-06-14T01:04:04;5.97;;;3.63;;
12958;SDS011;6544;51.666;6.634;2023-06-14T01:06:33;6.25;;;3.50;;
12958;SDS011;6544;51.666;6.634;2023-06-14T01:09:09;10.02;;;3.58;;
12958;SDS011;6544;51.666;6.634;2023-06-14T01:11:45;6.88;;;3.50;;
12958;SDS011;6544;51.666;6.634;2023-06-14T01:14:20;5.85;;;3.70;;
12958;SDS011;6544;51.666;6.634;2023-06-14T01:16:48;5.35;;;3.55;;
12958;SDS011;6544;51.666;6.634;2023-06-14T01:19:18;4.97;;;3.50;;
12958;SDS011;6544;51.666;6.634;2023-06-14T01:21:47;7.57;;;3.47;;
12958;SDS011;6544;51.666;6.634;2023-06-14T01:24:17;5.03;;;3.70;;
12958;SDS011;6544;51.666;6.634;2023-06-14T01:26:48;4.75;;;3.50;;
12958;SDS011;6544;51.666;6.634;2023-06-14T01:29:20;7.13;;;3.60;;
12958;SDS011;6544;51.666;6.634;2023-06-14T01:31:48;4.80;;;3.72;;
12958;SDS011;6544;51.666;6.634;2023-06-14T01:34:16;5.50;;;3.47;;
12958;SDS011;6544;51.666;6.634;2023-06-14T01:36:43;4.57;;;3.38;;
12958;SDS011;6544;51.666;6.634;2023-06-14T01:39:11;7.65;;;3.53;;
12958;SDS011;6544;51.666;6.634;2023-06-14T01:41:41;6.35;;;3.72;;
12958;SDS011;6544;51.666;6.634;2023-06-14T01:44:10;7.80;;;3.50;;
12958;SDS011;6544;51.666;6.634;2023-06-14T01:46:38;7.93;;;3.70;;
12958;SDS011;6544;51.666;6.634;2023-06-14T01:49:06;4.85;;;3.20;;
12958;SDS011;6544;51.666;6.634;2023-06-14T01:51:34;6.13;;;3.28;;
12958;SDS011;6544;51.666;6.634;2023-06-14T01:54:01;4.68;;;3.60;;
12958;SDS011;6544;51.666;6.634;2023-06-14T01:56:30;4.65;;;3.63;;
12958;SDS011;6544;51.666;6.634;2023-06-14T01:58:58;4.75;;;3.30;;
12958;SDS011;6544;51.666;6.634;2023-06-14T02:01:26;4.43;;;3.28;;
12958;SDS011;6544;51.666;6.634;2023-06-14T02:03:53;5.75;;;3.20;;
12958;SDS011;6544;51.666;6.634;2023-06-14T02:06:20;5.82;;;3.55;;
12958;SDS011;6544;51.666;6.634;2023-06-14T02:08:47;3.88;;;3.08;;
12958;SDS011;6544;51.666;6.634;2023-06-14T02:11:15;5.60;;;3.38;;
12958;SDS011;6544;51.666;6.634;2023-06-14T02:13:42;4.38;;;3.53;;
12958;SDS011;6544;51.666;6.634;2023-06-14T02:16:10;4.55;;;3.42;;
12958;SDS011;6544;51.666;6.634;2023-06-14T02:18:37;7.85;;;3.38;;
12958;SDS011;6544;51.666;6.634;2023-06-14T02:21:03;5.30;;;3.17;;
12958;SDS011;6544;51.666;6.634;2023-06-14T02:23:30;5.55;;;3.47;;
12958;SDS011;6544;51.666;6.634;2023-06-14T02:25:58;6.72;;;3.72;;
12958;SDS011;6544;51.666;6.634;2023-06-14T02:28:25;3.97;;;3.60;;
12958;SDS011;6544;51.666;6.634;2023-06-14T02:30:52;6.72;;;3.40;;
12958;SDS011;6544;51.666;6.634;2023-06-14T02:33:20;5.75;;;3.03;;
12958;SDS011;6544;51.666;6.634;2023-06-14T02:35:50;6.07;;;3.45;;
12958;SDS011;6544;51.666;6.634;2023-06-14T02:38:17;5.57;;;3.10;;
12958;SDS011;6544;51.666;6.634;2023-06-14T02:40:44;5.60;;;3.20;;
12958;SDS011;6544;51.666;6.634;2023-06-14T02:43:11;7.88;;;3.20;;
12958;SDS011;6544;51.666;6.634;2023-06-14T02:45:38;7.85;;;3.80;;
12958;SDS011;6544;51.666;6.634;2023-06-14T02:48:05;6.55;;;3.30;;
12958;SDS011;6544;51.666;6.634;2023-06-14T02:50:34;11.77;;;3.00;;
12958;SDS011;6544;51.666;6.634;2023-06-14T02:53:00;6.60;;;3.15;;
12958;SDS011;6544;51.666;6.634;2023-06-14T02:55:27;8.88;;;3.40;;
12958;SDS011;6544;51.666;6.634;2023-06-14T02:57:54;5.65;;;3.20;;
12958;SDS011;6544;51.666;6.634;2023-06-14T03:00:21;4.10;;;3.10;;
12958;SDS011;6544;51.666;6.634;2023-06-14T03:02:49;5.95;;;3.28;;
12958;SDS011;6544;51.666;6.634;2023-06-14T03:05:17;5.93;;;3.30;;
12958;SDS011;6544;51.666;6.634;2023-06-14T03:07:47;3.53;;;3.20;;
12958;SDS011;6544;51.666;6.634;2023-06-14T03:10:15;5.80;;;3.22;;
12958;SDS011;6544;51.666;6.634;2023-06-14T03:12:42;6.00;;;3.67;;
12958;SDS011;6544;51.666;6.634;2023-06-14T03:15:10;5.45;;;3.40;;
12958;SDS011;6544;51.666;6.634;2023-06-14T03:17:38;6.47;;;3.03;;
12958;SDS011;6544;51.666;6.634;2023-06-14T03:20:06;3.47;;;2.90;;
12958;SDS011;6544;51.666;6.634;2023-06-14T03:22:34;5.00;;;3.22;;
12958;SDS011;6544;51.666;6.634;2023-06-14T03:25:02;4.43;;;3.22;;
12958;SDS011;6544;51.666;6.634;2023-06-14T03:27:30;4.32;;;3.50;;
12958;SDS011;6544;51.666;6.634;2023-06-14T03:29:57;4.10;;;3.15;;
12958;SDS011;6544;51.666;6.634;2023-06-14T03:32:24;5.35;;;3.65;;
12958;SDS011;6544;51.666;6.634;2023-06-14T03:34:50;5.30;;;3.42;;
12958;SDS011;6544;51.666;6.634;2023-06-14T03:37:17;7.07;;;3.25;;
12958;SDS011;6544;51.666;6.634;2023-06-14T03:39:44;12.50;;;3.47;;
12958;SDS011;6544;51.666;6.634;2023-06-14T03:42:14;4.93;;;3.22;;
12958;SDS011;6544;51.666;6.634;2023-06-14T03:44:41;5.57;;;3.40;;
12958;SDS011;6544;51.666;6.634;2023-06-14T03:47:08;5.00;;;3.40;;
12958;SDS011;6544;51.666;6.634;2023-06-14T03:49:35;6.65;;;3.30;;
12958;SDS011;6544;51.666;6.634;2023-06-14T03:52:03;4.97;;;3.42;;
12958;SDS011;6544;51.666;6.634;2023-06-14T03:54:30;5.10;;;3.20;;
12958;SDS011;6544;51.666;6.634;2023-06-14T03:56:58;3.92;;;3.40;;
12958;SDS011;6544;51.666;6.634;2023-06-14T03:59:26;4.50;;;2.95;;
12958;SDS011;6544;51.666;6.634;2023-06-14T04:01:53;9.57;;;3.25;;
12958;SDS011;6544;51.666;6.634;2023-06-14T04:04:21;5.10;;;3.40;;
12958;SDS011;6544;51.666;6.634;2023-06-14T04:06:54;4.97;;;3.22;;
12958;SDS011;6544;51.666;6.634;2023-06-14T04:09:21;5.53;;;3.30;;
12958;SDS011;6544;51.666;6.634;2023-06-14T04:11:49;6.43;;;3.20;;
12958;SDS011;6544;51.666;6.634;2023-06-14T04:14:17;3.65;;;3.05;;
12958;SDS011;6544;51.666;6.634;2023-06-14T04:16:46;5.28;;;3.22;;
12958;SDS011;6544;51.666;6.634;2023-06-14T04:19:13;5.90;;;3.20;;
12958;SDS011;6544;51.666;6.634;2023-06-14T04:21:40;10.70;;;3.20;;
12958;SDS011;6544;51.666;6.634;2023-06-14T04:24:07;10.50;;;3.70;;
12958;SDS011;6544;51.666;6.634;2023-06-14T04:26:38;6.10;;;3.08;;
12958;SDS011;6544;51.666;6.634;2023-06-14T04:29:05;5.95;;;3.30;;
12958;SDS011;6544;51.666;6.634;2023-06-14T04:31:32;6.20;;;3.17;;
12958;SDS011;6544;51.666;6.634;2023-06-14T04:34:03;4.75;;;3.00;;
12958;SDS011;6544;51.666;6.634;2023-06-14T04:36:31;5.93;;;3.00;;
12958;SDS011;6544;51.666;6.634;2023-06-14T04:38:59;7.35;;;3.10;;
12958;SDS011;6544;51.666;6.634;2023-06-14T04:41:28;4.05;;;2.97;;
12958;SDS011;6544;51.666;6.634;2023-06-14T04:43:56;6.18;;;2.97;;
12958;SDS011;6544;51.666;6.634;2023-06-14T04:46:26;5.18;;;3.40;;
12958;SDS011;6544;51.666;6.634;2023-06-14T04:48:53;7.55;;;3.33;;
12958;SDS011;6544;51.666;6.634;2023-06-14T04:51:23;10.20;;;3.20;;
12958;SDS011;6544;51.666;6.634;2023-06-14T04:53:55;6.60;;;3.17;;
12958;SDS011;6544;51.666;6.634;2023-06-14T04:56:23;6.35;;;2.95;;
12958;SDS011;6544;51.666;6.634;2023-06-14T04:58:51;6.95;;;2.97;;
12958;SDS011;6544;51.666;6.634;2023-06-14T05:01:18;7.10;;;3.30;;
12958;SDS011;6544;51.666;6.634;2023-06-14T05:03:46;6.82;;;3.17;;
12958;SDS011;6544;51.666;6.634;2023-06-14T05:06:13;7.13;;;3.30;;
12958;SDS011;6544;51.666;6.634;2023-06-14T05:08:45;7.35;;;3.33;;
12958;SDS011;6544;51.666;6.634;2023-06-14T05:11:12;6.70;;;3.20;;
12958;SDS011;6544;51.666;6.634;2023-06-14T05:13:39;7.55;;;3.15;;
12958;SDS011;6544;51.666;6.634;2023-06-14T05:16:06;5.45;;;2.95;;
12958;SDS011;6544;51.666;6.634;2023-06-14T05:18:33;9.43;;;2.90;;
12958;SDS011;6544;51.666;6.634;2023-06-14T05:21:01;7.53;;;3.10;;
12958;SDS011;6544;51.666;6.634;2023-06-14T05:23:29;5.82;;;3.13;;
12958;SDS011;6544;51.666;6.634;2023-06-14T05:25:57;6.82;;;3.00;;
12958;SDS011;6544;51.666;6.634;2023-06-14T05:28:24;5.05;;;3.15;;
12958;SDS011;6544;51.666;6.634;2023-06-14T05:30:51;6.90;;;3.05;;
12958;SDS011;6544;51.666;6.634;2023-06-14T05:33:18;4.88;;;3.00;;
12958;SDS011;6544;51.666;6.634;2023-06-14T05:35:45;6.03;;;3.00;;
12958;SDS011;6544;51.666;6.634;2023-06-14T05:38:12;5.03;;;3.05;;
12958;SDS011;6544;51.666;6.634;2023-06-14T05:40:39;4.95;;;3.17;;
12958;SDS011;6544;51.666;6.634;2023-06-14T05:43:08;5.45;;;3.00;;
12958;SDS011;6544;51.666;6.634;2023-06-14T05:45:35;3.85;;;2.80;;
12958;SDS011;6544;51.666;6.634;2023-06-14T05:48:02;3.92;;;2.92;;
12958;SDS011;6544;51.666;6.634;2023-06-14T05:50:30;6.10;;;2.80;;
12958;SDS011;6544;51.666;6.634;2023-06-14T05:52:56;6.80;;;2.92;;
12958;SDS011;6544;51.666;6.634;2023-06-14T05:55:24;4.75;;;2.65;;
12958;SDS011;6544;51.666;6.634;2023-06-14T05:57:51;8.55;;;3.00;;
12958;SDS011;6544;51.666;6.634;2023-06-14T06:00:19;5.32;;;2.88;;
12958;SDS011;6544;51.666;6.634;2023-06-14T06:02:47;7.22;;;2.72;;
12958;SDS011;6544;51.666;6.634;2023-06-14T06:05:18;5.10;;;2.83;;
12958;SDS011;6544;51.666;6.634;2023-06-14T06:07:45;4.80;;;3.13;;
12958;SDS011;6544;51.666;6.634;2023-06-14T06:10:13;4.43;;;3.05;;
12958;SDS011;6544;51.666;6.634;2023-06-14T06:12:40;4.18;;;2.85;;
12958;SDS011;6544;51.666;6.634;2023-06-14T06:15:07;6.57;;;2.50;;
12958;SDS011;6544;51.666;6.634;2023-06-14T06:17:38;4.63;;;2.53;;
12958;SDS011;6544;51.666;6.634;2023-06-14T06:20:05;5.78;;;2.80;;
12958;SDS011;6544;51.666;6.634;2023-06-14T06:22:34;8.85;;;2.47;;
12958;SDS011;6544;51.666;6.634;2023-06-14T06:25:01;8.10;;;2.83;;
12958;SDS011;6544;51.666;6.634;2023-06-14T06:27:28;6.90;;;2.60;;
12958;SDS011;6544;51.666;6.634;2023-06-14T06:29:55;8.55;;;2.55;;
12958;SDS011;6544;51.666;6.634;2023-06-14T06:32:22;6.53;;;2.70;;
12958;SDS011;6544;51.666;6.634;2023-06-14T06:34:51;4.45;;;2.08;;
12958;SDS011;6544;51.666;6.634;2023-06-14T06:37:18;4.88;;;2.40;;
12958;SDS011;6544;51.666;6.634;2023-06-14T06:39:45;3.28;;;2.40;;
12958;SDS011;6544;51.666;6.634;2023-06-14T06:42:13;6.70;;;2.67;;
12958;SDS011;6544;51.666;6.634;2023-06-14T06:44:40;5.70;;;2.55;;
12958;SDS011;6544;51.666;6.634;2023-06-14T06:47:07;3.80;;;2.30;;
12958;SDS011;6544;51.666;6.634;2023-06-14T06:49:34;3.75;;;2.50;;
12958;SDS011;6544;51.666;6.634;2023-06-14T06:52:04;6.93;;;2.40;;
12958;SDS011;6544;51.666;6.634;2023-06-14T06:54:32;4.80;;;2.40;;
12958;SDS011;6544;51.666;6.634;2023-06-14T06:56:59;4.18;;;2.30;;
12958;SDS011;6544;51.666;6.634;2023-06-14T06:59:26;4.70;;;2.35;;
12958;SDS011;6544;51.666;6.634;2023-06-14T07:01:53;3.97;;;2.30;;
12958;SDS011;6544;51.666;6.634;2023-06-14T07:04:20;3.70;;;2.20;;
12958;SDS011;6544;51.666;6.634;2023-06-14T07:06:47;4.32;;;2.10;;
12958;SDS011;6544;51.666;6.634;2023-06-14T07:09:15;4.75;;;2.03;;
12958;SDS011;6544;51.666;6.634;2023-06-14T07:11:43;3.83;;;2.28;;
12958;SDS011;6544;51.666;6.634;2023-06-14T07:14:10;7.13;;;2.30;;
12958;SDS011;6544;51.666;6.634;2023-06-14T07:16:37;4.00;;;2.00;;
12958;SDS011;6544;51.666;6.634;2023-06-14T07:19:06;4.68;;;2.03;;
12958;SDS011;6544;51.666;6.634;2023-06-14T07:21:34;5.38;;;2.13;;
12958;SDS011;6544;51.666;6.634;2023-06-14T07:24:02;5.88;;;2.00;;
12958;SDS011;6544;51.666;6.634;2023-06-14T07:26:31;5.57;;;2.30;;
12958;SDS011;6544;51.666;6.634;2023-06-14T07:28:58;7.20;;;2.50;;
12958;SDS011;6544;51.666;6.634;2023-06-14T07:31:25;4.75;;;2.15;;
12958;SDS011;6544;51.666;6.634;2023-06-14T07:33:52;5.00;;;2.10;;
12958;SDS011;6544;51.666;6.634;2023-06-14T07:36:19;5.15;;;2.20;;
12958;SDS011;6544;51.666;6.634;2023-06-14T07:38:46;3.10;;;2.20;;
12958;SDS011;6544;51.666;6.634;2023-06-14T07:41:13;5.28;;;2.03;;
12958;SDS011;6544;51.666;6.634;2023-06-14T07:43:44;4.03;;;2.00;;
12958;SDS011;6544;51.666;6.634;2023-06-14T07:46:11;3.30;;;2.10;;
12958;SDS011;6544;51.666;6.634;2023-06-14T07:48:38;4.55;;;2.10;;
12958;SDS011;6544;51.666;6.634;2023-06-14T07:51:05;5.22;;;2.10;;
12958;SDS011;6544;51.666;6.634;2023-06-14T07:53:32;2.97;;;1.90;;
12958;SDS011;6544;51.666;6.634;2023-06-14T07:55:59;4.38;;;2.03;;
12958;SDS011;6544;51.666;6.634;2023-06-14T07:58:27;4.95;;;2.25;;
12958;SDS011;6544;51.666;6.634;2023-06-14T08:00:56;6.78;;;2.25;;
12958;SDS011;6544;51.666;6.634;2023-06-14T08:03:22;4.30;;;2.03;;
12958;SDS011;6544;51.666;6.634;2023-06-14T08:05:50;4.47;;;2.28;;
12958;SDS011;6544;51.666;6.634;2023-06-14T08:08:17;3.75;;;2.00;;
12958;SDS011;6544;51.666;6.634;2023-06-14T08:10:43;5.72;;;2.17;;
12958;SDS011;6544;51.666;6.634;2023-06-14T08:13:11;7.20;;;2.45;;
12958;SDS011;6544;51.666;6.634;2023-06-14T08:15:38;5.95;;;2.42;;
12958;SDS011;6544;51.666;6.634;2023-06-14T08:18:06;8.50;;;2.40;;
12958;SDS011;6544;51.666;6.634;2023-06-14T08:20:33;4.35;;;2.08;;
12958;SDS011;6544;51.666;6.634;2023-06-14T08:23:00;5.20;;;2.10;;
12958;SDS011;6544;51.666;6.634;2023-06-14T08:25:29;8.60;;;2.33;;
12958;SDS011;6544;51.666;6.634;2023-06-14T08:27:55;2.33;;;1.92;;
12958;SDS011;6544;51.666;6.634;2023-06-14T08:30:22;5.45;;;2.03;;
12958;SDS011;6544;51.666;6.634;2023-06-14T08:32:49;3.90;;;1.80;;
12958;SDS011;6544;51.666;6.634;2023-06-14T08:35:18;3.10;;;1.90;;
12958;SDS011;6544;51.666;6.634;2023-06-14T08:37:45;2.90;;;2.00;;
12958;SDS011;6544;51.666;6.634;2023-06-14T08:40:16;4.70;;;1.92;;
12958;SDS011;6544;51.666;6.634;2023-06-14T08:42:46;4.00;;;1.80;;
12958;SDS011;6544;51.666;6.634;2023-06-14T08:45:16;4.30;;;1.90;;
12958;SDS011;6544;51.666;6.634;2023-06-14T08:47:43;3.55;;;1.70;;
12958;SDS011;6544;51.666;6.634;2023-06-14T08:50:11;8.05;;;1.70;;
12958;SDS011;6544;51.666;6.634;2023-06-14T08:52:42;6.32;;;1.98;;
12958;SDS011;6544;51.666;6.634;2023-06-14T08:55:16;3.38;;;2.00;;
12958;SDS011;6544;51.666;6.634;2023-06-14T08:57:45;5.15;;;1.90;;
12958;SDS011;6544;51.666;6.634;2023-06-14T09:00:13;5.85;;;2.00;;
12958;SDS011;6544;51.666;6.634;2023-06-14T09:02:40;2.90;;;2.03;;
12958;SDS011;6544;51.666;6.634;2023-06-14T09:05:08;5.80;;;1.95;;
12958;SDS011;6544;51.666;6.634;2023-06-14T09:07:38;2.53;;;1.90;;
12958;SDS011;6544;51.666;6.634;2023-06-14T09:10:09;5.95;;;1.77;;
12958;SDS011;6544;51.666;6.634;2023-06-14T09:12:37;4.72;;;2.03;;
12958;SDS011;6544;51.666;6.634;2023-06-14T09:15:05;2.58;;;1.67;;
12958;SDS011;6544;51.666;6.634;2023-06-14T09:17:33;1.63;;;1.50;;
12958;SDS011;6544;51.666;6.634;2023-06-14T09:20:01;3.00;;;1.75;;
12958;SDS011;6544;51.666;6.634;2023-06-14T09:22:32;4.10;;;1.83;;
12958;SDS011;6544;51.666;6.634;2023-06-14T09:24:59;4.32;;;1.80;;
12958;SDS011;6544;51.666;6.634;2023-06-14T09:27:28;3.63;;;1.70;;
12958;SDS011;6544;51.666;6.634;2023-06-14T09:29:55;5.32;;;1.80;;
12958;SDS011;6544;51.666;6.634;2023-06-14T09:32:22;5.05;;;2.00;;
12958;SDS011;6544;51.666;6.634;2023-06-14T09:34:50;6.53;;;2.00;;
12958;SDS011;6544;51.666;6.634;2023-06-14T09:37:26;2.28;;;1.98;;
12958;SDS011;6544;51.666;6.634;2023-06-14T09:39:55;2.45;;;1.80;;
12958;SDS011;6544;51.666;6.634;2023-06-14T09:42:22;5.70;;;1.80;;
12958;SDS011;6544;51.666;6.634;2023-06-14T09:44:55;2.33;;;1.90;;
12958;SDS011;6544;51.666;6.634;2023-06-14T09:47:23;4.95;;;2.03;;
12958;SDS011;6544;51.666;6.634;2023-06-14T09:49:50;2.88;;;1.70;;
12958;SDS011;6544;51.666;6.634;2023-06-14T09:52:20;2.33;;;1.90;;
12958;SDS011;6544;51.666;6.634;2023-06-14T09:54:49;3.47;;;1.80;;
12958;SDS011;6544;51.666;6.634;2023-06-14T09:57:16;7.00;;;1.80;;
12958;SDS011;6544;51.666;6.634;2023-06-14T09:59:47;4.68;;;1.52;;
12958;SDS011;6544;51.666;6.634;2023-06-14T10:02:21;4.90;;;1.77;;
12958;SDS011;6544;51.666;6.634;2023-06-14T10:04:53;2.88;;;2.00;;
12958;SDS011;6544;51.666;6.634;2023-06-14T10:07:26;2.88;;;1.85;;
12958;SDS011;6544;51.666;6.634;2023-06-14T10:09:55;5.70;;;2.00;;
12958;SDS011;6544;51.666;6.634;2023-06-14T10:12:23;4.25;;;1.60;;
12958;SDS011;6544;51.666;6.634;2023-06-14T10:14:51;3.03;;;2.10;;
12958;SDS011;6544;51.666;6.634;2023-06-14T10:17:22;2.13;;;1.70;;
12958;SDS011;6544;51.666;6.634;2023-06-14T10:19:58;3.13;;;1.77;;
12958;SDS011;6544;51.666;6.634;2023-06-14T10:22:38;6.15;;;1.63;;
12958;SDS011;6544;51.666;6.634;2023-06-14T10:25:16;2.03;;;1.40;;
12958;SDS011;6544;51.666;6.634;2023-06-14T10:27:53;2.30;;;1.80;;
12958;SDS011;6544;51.666;6.634;2023-06-14T10:30:29;7.00;;;1.70;;
12958;SDS011;6544;51.666;6.634;2023-06-14T10:33:06;3.42;;;1.70;;
12958;SDS011;6544;51.666;6.634;2023-06-14T10:35:35;2.55;;;1.70;;
12958;SDS011;6544;51.666;6.634;2023-06-14T10:38:08;1.65;;;1.40;;
12958;SDS011;6544;51.666;6.634;2023-06-14T10:40:35;4.68;;;1.50;;
12958;SDS011;6544;51.666;6.634;2023-06-14T10:48:42;3.88;;;1.80;;
12958;SDS011;6544;51.666;6.634;2023-06-14T10:51:15;6.55;;;1.75;;
12958;SDS011;6544;51.666;6.634;2023-06-14T10:53:49;7.43;;;1.40;;
12958;SDS011;6544;51.666;6.634;2023-06-14T10:56:23;3.75;;;1.33;;
12958;SDS011;6544;51.666;6.634;2023-06-14T10:58:53;3.50;;;1.35;;
12958;SDS011;6544;51.666;6.634;2023-06-14T11:01:25;2.30;;;1.40;;
12958;SDS011;6544;51.666;6.634;2023-06-14T11:04:07;2.40;;;1.52;;
12958;SDS011;6544;51.666;6.634;2023-06-14T11:06:45;3.00;;;1.10;;
12958;SDS011;6544;51.666;6.634;2023-06-14T11:12:13;1.85;;;1.40;;
12958;SDS011;6544;51.666;6.634;2023-06-14T11:14:45;2.10;;;1.40;;
12958;SDS011;6544;51.666;6.634;2023-06-14T11:17:13;1.83;;;1.25;;
12958;SDS011;6544;51.666;6.634;2023-06-14T11:19:41;1.70;;;1.23;;
12958;SDS011;6544;51.666;6.634;2023-06-14T11:22:08;2.20;;;1.30;;
12958;SDS011;6544;51.666;6.634;2023-06-14T11:24:35;2.83;;;1.27;;
12958;SDS011;6544;51.666;6.634;2023-06-14T11:27:03;8.02;;;1.42;;
12958;SDS011;6544;51.666;6.634;2023-06-14T11:29:31;2.90;;;1.33;;
12958;SDS011;6544;51.666;6.634;2023-06-14T11:31:58;1.95;;;1.30;;
12958;SDS011;6544;51.666;6.634;2023-06-14T11:34:25;2.63;;;1.30;;
12958;SDS011;6544;51.666;6.634;2023-06-14T11:36:53;1.67;;;1.20;;
12958;SDS011;6544;51.666;6.634;2023-06-14T11:39:23;2.67;;;1.38;;
12958;SDS011;6544;51.666;6.634;2023-06-14T11:41:51;2.88;;;1.50;;
12958;SDS011;6544;51.666;6.634;2023-06-14T11:44:18;2.50;;;1.40;;
12958;SDS011;6544;51.666;6.634;2023-06-14T11:46:45;7.70;;;1.60;;
12958;SDS011;6544;51.666;6.634;2023-06-14T11:49:12;1.75;;;1.20;;
12958;SDS011;6544;51.666;6.634;2023-06-14T11:51:38;2.20;;;1.25;;
12958;SDS011;6544;51.666;6.634;2023-06-14T11:54:07;6.60;;;1.67;;
12958;SDS011;6544;51.666;6.634;2023-06-14T11:56:34;7.15;;;1.50;;
12958;SDS011;6544;51.666;6.634;2023-06-14T11:59:03;4.43;;;1.40;;
12958;SDS011;6544;51.666;6.634;2023-06-14T12:01:30;5.47;;;1.80;;
12958;SDS011;6544;51.666;6.634;2023-06-14T12:03:58;3.60;;;1.40;;
12958;SDS011;6544;51.666;6.634;2023-06-14T12:06:29;2.83;;;1.30;;
12958;SDS011;6544;51.666;6.634;2023-06-14T12:08:58;3.80;;;1.35;;
12958;SDS011;6544;51.666;6.634;2023-06-14T12:11:32;6.30;;;1.40;;
12958;SDS011;6544;51.666;6.634;2023-06-14T12:14:00;3.47;;;1.30;;
12958;SDS011;6544;51.666;6.634;2023-06-14T12:16:32;2.90;;;1.38;;
12958;SDS011;6544;51.666;6.634;2023-06-14T12:19:00;3.67;;;1.40;;
12958;SDS011;6544;51.666;6.634;2023-06-14T12:21:36;4.03;;;1.75;;
12958;SDS011;6544;51.666;6.634;2023-06-14T12:24:05;5.30;;;1.70;;
12958;SDS011;6544;51.666;6.634;2023-06-14T12:26:37;3.90;;;1.60;;
12958;SDS011;6544;51.666;6.634;2023-06-14T12:29:05;1.52;;;1.38;;
12958;SDS011;6544;51.666;6.634;2023-06-14T12:31:32;3.80;;;1.65;;
12958;SDS011;6544;51.666;6.634;2023-06-14T12:33:59;4.65;;;1.50;;
12958;SDS011;6544;51.666;6.634;2023-06-14T12:36:26;2.42;;;1.38;;
12958;SDS011;6544;51.666;6.634;2023-06-14T12:38:53;3.05;;;1.20;;
12958;SDS011;6544;51.666;6.634;2023-06-14T12:41:20;2.35;;;1.48;;
12958;SDS011;6544;51.666;6.634;2023-06-14T12:43:48;2.08;;;1.40;;
12958;SDS011;6544;51.666;6.634;2023-06-14T12:46:15;3.47;;;1.40;;
12958;SDS011;6544;51.666;6.634;2023-06-14T12:48:43;2.50;;;1.40;;
12958;SDS011;6544;51.666;6.634;2023-06-14T12:51:09;3.40;;;1.48;;
12958;SDS011;6544;51.666;6.634;2023-06-14T12:53:37;3.75;;;1.40;;
12958;SDS011;6544;51.666;6.634;2023-06-14T12:56:04;1.45;;;1.35;;
12958;SDS011;6544;51.666;6.634;2023-06-14T12:58:31;4.22;;;1.40;;
12958;SDS011;6544;51.666;6.634;2023-06-14T13:00:59;2.42;;;1.50;;
12958;SDS011;6544;51.666;6.634;2023-06-14T13:03:26;1.52;;;1.30;;
12958;SDS011;6544;51.666;6.634;2023-06-14T13:05:53;1.90;;;1.50;;
12958;SDS011;6544;51.666;6.634;2023-06-14T13:08:20;2.65;;;1.60;;
12958;SDS011;6544;51.666;6.634;2023-06-14T13:10:47;4.30;;;1.35;;
12958;SDS011;6544;51.666;6.634;2023-06-14T13:13:14;4.07;;;1.50;;
12958;SDS011;6544;51.666;6.634;2023-06-14T13:15:42;4.65;;;1.75;;
12958;SDS011;6544;51.666;6.634;2023-06-14T13:18:10;1.67;;;1.40;;
12958;SDS011;6544;51.666;6.634;2023-06-14T13:20:38;2.90;;;1.50;;
12958;SDS011;6544;51.666;6.634;2023-06-14T13:23:05;4.50;;;1.70;;
12958;SDS011;6544;51.666;6.634;2023-06-14T13:25:32;2.13;;;1.50;;
12958;SDS011;6544;51.666;6.634;2023-06-14T13:27:59;4.18;;;1.60;;
12958;SDS011;6544;51.666;6.634;2023-06-14T13:30:26;4.85;;;1.60;;
12958;SDS011;6544;51.666;6.634;2023-06-14T13:32:53;2.22;;;1.42;;
12958;SDS011;6544;51.666;6.634;2023-06-14T13:35:22;3.28;;;1.58;;
12958;SDS011;6544;51.666;6.634;2023-06-14T13:37:49;4.82;;;1.80;;
12958;SDS011;6544;51.666;6.634;2023-06-14T13:40:16;1.77;;;1.50;;
12958;SDS011;6544;51.666;6.634;2023-06-14T13:42:43;2.03;;;1.55;;
12958;SDS011;6544;51.666;6.634;2023-06-14T13:45:10;3.20;;;1.77;;
12958;SDS011;6544;51.666;6.634;2023-06-14T13:47:38;5.35;;;1.80;;
12958;SDS011;6544;51.666;6.634;2023-06-14T13:50:05;3.28;;;1.50;;
12958;SDS011;6544;51.666;6.634;2023-06-14T13:52:34;2.45;;;1.65;;
12958;SDS011;6544;51.666;6.634;2023-06-14T13:55:01;4.85;;;1.70;;
12958;SDS011;6544;51.666;6.634;2023-06-14T13:57:28;3.00;;;1.70;;
12958;SDS011;6544;51.666;6.634;2023-06-14T13:59:55;6.45;;;1.90;;
12958;SDS011;6544;51.666;6.634;2023-06-14T14:02:26;2.10;;;1.88;;
12958;SDS011;6544;51.666;6.634;2023-06-14T14:04:54;6.57;;;1.70;;
12958;SDS011;6544;51.666;6.634;2023-06-14T14:07:21;5.35;;;1.90;;
12958;SDS011;6544;51.666;6.634;2023-06-14T14:09:50;5.30;;;2.00;;
12958;SDS011;6544;51.666;6.634;2023-06-14T14:12:18;2.83;;;2.00;;
12958;SDS011;6544;51.666;6.634;2023-06-14T14:14:45;5.65;;;2.03;;
12958;SDS011;6544;51.666;6.634;2023-06-14T14:17:12;4.55;;;2.00;;
12958;SDS011;6544;51.666;6.634;2023-06-14T14:19:39;13.88;;;3.40;;
12958;SDS011;6544;51.666;6.634;2023-06-14T14:22:06;5.60;;;1.92;;
12958;SDS011;6544;51.666;6.634;2023-06-14T14:24:33;2.65;;;2.08;;
12958;SDS011;6544;51.666;6.634;2023-06-14T14:27:02;5.30;;;2.47;;
12958;SDS011;6544;51.666;6.634;2023-06-14T14:29:29;3.75;;;2.20;;
12958;SDS011;6544;51.666;6.634;2023-06-14T14:31:56;4.18;;;2.00;;
12958;SDS011;6544;51.666;6.634;2023-06-14T14:34:24;4.53;;;2.33;;
12958;SDS011;6544;51.666;6.634;2023-06-14T14:36:50;3.08;;;2.03;;
12958;SDS011;6544;51.666;6.634;2023-06-14T14:39:18;5.55;;;2.13;;
12958;SDS011;6544;51.666;6.634;2023-06-14T14:41:45;3.78;;;1.85;;
12958;SDS011;6544;51.666;6.634;2023-06-14T14:44:14;5.28;;;2.00;;
12958;SDS011;6544;51.666;6.634;2023-06-14T14:46:40;3.85;;;2.30;;
12958;SDS011;6544;51.666;6.634;2023-06-14T14:49:08;4.68;;;1.92;;
12958;SDS011;6544;51.666;6.634;2023-06-14T14:51:35;3.47;;;2.03;;
12958;SDS011;6544;51.666;6.634;2023-06-14T14:54:03;4.03;;;2.25;;
12958;SDS011;6544;51.666;6.634;2023-06-14T14:56:30;2.50;;;2.00;;
12958;SDS011;6544;51.666;6.634;2023-06-14T14:58:57;2.63;;;2.10;;
12958;SDS011;6544;51.666;6.634;2023-06-14T15:01:26;3.13;;;2.00;;
12958;SDS011;6544;51.666;6.634;2023-06-14T15:03:53;9.45;;;2.67;;
12958;SDS011;6544;51.666;6.634;2023-06-14T15:06:20;4.95;;;2.30;;
12958;SDS011;6544;51.666;6.634;2023-06-14T15:08:47;4.03;;;2.50;;
12958;SDS011;6544;51.666;6.634;2023-06-14T15:11:14;4.25;;;2.20;;
12958;SDS011;6544;51.666;6.634;2023-06-14T15:13:40;3.33;;;2.08;;